createdAt,value
2018-01-04T00:01:22.030Z,54.40
2018-01-04T00:03:49.534Z,54.10
2018-01-04T00:06:17.064Z,54.20
2018-01-04T00:08:44.616Z,54.30
2018-01-04T00:11:12.105Z,54.30
2018-01-04T00:13:39.614Z,54.40
2018-01-04T00:16:07.151Z,54.60
2018-01-04T00:18:34.684Z,54.70
2018-01-04T00:21:02.174Z,54.80
2018-01-04T00:23:30.484Z,55.20
2018-01-04T00:25:58.014Z,55.10
2018-01-04T00:28:26.336Z,55.40
2018-01-04T00:30:53.826Z,55.40
2018-01-04T00:33:21.333Z,55.30
2018-01-04T00:35:48.829Z,55.30
2018-01-04T00:38:16.345Z,55.30
2018-01-04T00:40:43.830Z,55.40
2018-01-04T00:43:11.341Z,55.30
2018-01-04T00:45:39.597Z,55.40
2018-01-04T00:48:07.107Z,55.30
2018-01-04T00:50:34.603Z,55.20
2018-01-04T00:53:02.097Z,55.20
2018-01-04T00:55:30.374Z,55.20
2018-01-04T00:57:58.625Z,55.20
2018-01-04T01:00:26.134Z,55.00
2018-01-04T01:02:53.636Z,54.80
2018-01-04T01:05:21.142Z,55.00
2018-01-04T01:07:49.463Z,55.20
2018-01-04T01:10:16.977Z,55.20
2018-01-04T01:12:44.478Z,55.00
2018-01-04T01:15:11.990Z,55.00
2018-01-04T01:17:40.246Z,54.50
2018-01-04T01:20:07.750Z,54.50
2018-01-04T01:22:35.235Z,55.20
2018-01-04T01:25:02.742Z,54.60
2018-01-04T01:27:31.001Z,54.60
2018-01-04T01:29:59.274Z,54.20
2018-01-04T01:32:26.773Z,54.50
2018-01-04T01:34:54.278Z,54.20
2018-01-04T01:37:21.765Z,54.40
2018-01-04T01:39:50.063Z,54.40
2018-01-04T01:42:17.548Z,54.30
2018-01-04T01:44:45.051Z,54.30
2018-01-04T01:47:13.305Z,54.80
2018-01-04T01:49:40.819Z,54.40
2018-01-04T01:52:08.310Z,54.40
2018-01-04T01:54:35.810Z,54.60
2018-01-04T01:57:04.077Z,54.80
2018-01-04T01:59:31.582Z,54.70
2018-01-04T02:01:59.065Z,54.70
2018-01-04T02:04:26.573Z,54.70
2018-01-04T02:06:54.080Z,54.80
2018-01-04T02:09:21.581Z,54.70
2018-01-04T02:11:49.834Z,55.00
2018-01-04T02:14:17.341Z,54.90
2018-01-04T02:16:44.825Z,55.00
2018-01-04T02:19:24.150Z,55.00
2018-01-04T02:22:03.302Z,55.10
2018-01-04T02:24:42.657Z,55.10
2018-01-04T02:27:21.930Z,55.10
2018-01-04T02:30:01.185Z,55.20
2018-01-04T02:32:40.599Z,55.10
2018-01-04T02:35:20.978Z,55.10
2018-01-04T02:38:00.319Z,55.00
2018-01-04T02:40:39.821Z,55.00
2018-01-04T02:43:19.938Z,55.20
2018-01-04T02:45:59.265Z,55.20
2018-01-04T02:48:26.750Z,55.20
2018-01-04T02:50:54.258Z,55.20
2018-01-04T02:53:21.755Z,54.90
2018-01-04T02:55:49.281Z,54.90
2018-01-04T02:58:16.770Z,54.90
2018-01-04T03:00:44.301Z,54.90
2018-01-04T03:03:11.815Z,54.80
2018-01-04T03:05:39.313Z,54.70
2018-01-04T03:08:06.818Z,54.80
2018-01-04T03:10:34.369Z,54.80
2018-01-04T03:13:01.878Z,54.80
2018-01-04T03:15:29.363Z,54.70
2018-01-04T03:17:56.866Z,54.70
2018-01-04T03:20:24.356Z,54.80
2018-01-04T03:23:08.671Z,55.00
2018-01-04T03:25:41.884Z,54.80
2018-01-04T03:28:15.790Z,55.10
2018-01-04T03:30:49.654Z,55.10
2018-01-04T03:33:22.941Z,55.10
2018-01-04T03:35:56.154Z,55.20
2018-01-04T03:38:29.282Z,55.20
2018-01-04T03:41:02.379Z,55.20
2018-01-04T03:43:36.291Z,55.40
2018-01-04T03:46:09.401Z,55.30
2018-01-04T03:48:42.526Z,55.30
2018-01-04T03:51:15.810Z,55.30
2018-01-04T03:53:49.170Z,55.30
2018-01-04T03:56:22.347Z,55.30
2018-01-04T03:58:56.387Z,55.20
2018-01-04T04:01:29.449Z,55.10
2018-01-04T04:03:57.722Z,54.90
2018-01-04T04:06:31.638Z,55.10
2018-01-04T04:08:59.926Z,55.00
2018-01-04T04:11:27.428Z,55.00
2018-01-04T04:13:54.954Z,54.80
2018-01-04T04:16:22.450Z,54.80
2018-01-04T04:18:49.953Z,54.80
2018-01-04T04:21:17.469Z,54.80
2018-01-04T04:23:44.978Z,54.70
2018-01-04T04:26:12.542Z,54.80
2018-01-04T04:28:40.787Z,54.80
2018-01-04T04:31:09.050Z,54.90
2018-01-04T04:33:36.564Z,54.80
2018-01-04T04:36:04.066Z,54.60
2018-01-04T04:38:31.589Z,54.70
2018-01-04T04:40:59.082Z,54.70
2018-01-04T04:43:26.595Z,54.80
2018-01-04T04:45:54.089Z,54.60
2018-01-04T04:48:21.582Z,54.60
2018-01-04T04:50:49.861Z,54.70
2018-01-04T04:53:18.122Z,54.70
2018-01-04T04:55:45.638Z,54.60
2018-01-04T04:58:13.130Z,54.60
2018-01-04T05:00:40.638Z,54.60
2018-01-04T05:03:08.142Z,54.70
2018-01-04T05:05:35.662Z,54.60
2018-01-04T05:08:03.158Z,54.70
2018-01-04T05:10:30.674Z,54.80
2018-01-04T05:12:58.177Z,54.80
2018-01-04T05:15:25.685Z,54.90
2018-01-04T05:17:53.184Z,54.90
2018-01-04T05:20:20.705Z,54.90
2018-01-04T05:22:48.205Z,55.10
2018-01-04T05:25:15.722Z,55.20
2018-01-04T05:27:43.214Z,55.30
2018-01-04T05:30:10.730Z,55.40
2018-01-04T05:32:38.990Z,55.70
2018-01-04T05:35:07.268Z,55.90
2018-01-04T05:37:35.530Z,56.30
2018-01-04T05:40:03.034Z,56.20
2018-01-04T05:42:30.580Z,56.50
2018-01-04T05:44:58.089Z,56.90
2018-01-04T05:47:25.594Z,57.10
2018-01-04T05:49:53.875Z,57.80
2018-01-04T05:52:21.381Z,57.70
2018-01-04T05:54:48.894Z,58.20
2018-01-04T05:57:16.393Z,58.20
2018-01-04T05:59:43.902Z,58.50
2018-01-04T06:02:12.157Z,58.60
2018-01-04T06:04:39.662Z,58.60
2018-01-04T06:07:07.149Z,58.50
2018-01-04T06:09:34.655Z,58.60
2018-01-04T06:12:02.909Z,58.40
2018-01-04T06:14:30.414Z,58.30
2018-01-04T06:16:57.901Z,58.30
2018-01-04T06:19:25.410Z,58.30
2018-01-04T06:21:53.667Z,58.10
2018-01-04T06:24:21.169Z,58.00
2018-01-04T06:26:48.655Z,57.90
2018-01-04T06:29:16.159Z,57.80
2018-01-04T06:31:44.409Z,58.00
2018-01-04T06:34:11.911Z,57.90
2018-01-04T06:36:39.405Z,58.00
2018-01-04T06:39:06.922Z,57.80
2018-01-04T06:41:34.445Z,57.80
2018-01-04T06:44:01.933Z,57.90
2018-01-04T06:46:30.206Z,58.00
2018-01-04T06:48:58.466Z,58.10
2018-01-04T06:51:26.010Z,58.00
2018-01-04T06:53:53.509Z,58.20
2018-01-04T06:56:22.026Z,58.40
2018-01-04T06:58:49.546Z,58.40
2018-01-04T07:01:17.766Z,58.60
2018-01-04T07:03:45.266Z,58.60
2018-01-04T07:06:12.988Z,58.80
2018-01-04T07:08:40.482Z,58.90
2018-01-04T07:11:07.992Z,58.90
2018-01-04T07:13:35.482Z,59.10
2018-01-04T07:16:02.990Z,59.80
2018-01-04T07:18:30.478Z,60.00
2018-01-04T07:20:57.986Z,59.50
2018-01-04T07:23:26.247Z,59.90
2018-01-04T07:25:53.801Z,59.80
2018-01-04T07:28:21.289Z,59.90
2018-01-04T07:30:48.798Z,60.10
2018-01-04T07:33:17.062Z,60.10
2018-01-04T07:35:44.569Z,60.00
2018-01-04T07:38:12.834Z,61.00
2018-01-04T07:40:40.333Z,60.30
2018-01-04T07:43:07.832Z,60.50
2018-01-04T07:45:35.345Z,60.70
2018-01-04T07:48:03.605Z,60.90
2018-01-04T07:50:31.883Z,61.00
2018-01-04T07:53:00.135Z,61.00
2018-01-04T07:55:27.646Z,61.00
2018-01-04T07:57:55.141Z,61.00
2018-01-04T08:00:22.653Z,61.20
2018-01-04T08:02:50.141Z,61.40
2018-01-04T08:05:17.649Z,61.50
2018-01-04T08:07:45.906Z,61.90
2018-01-04T08:10:13.429Z,61.60
2018-01-04T08:12:40.925Z,61.70
2018-01-04T08:15:08.414Z,61.70
2018-01-04T08:17:36.681Z,62.10
2018-01-04T08:20:04.938Z,62.80
2018-01-04T08:22:32.461Z,62.00
2018-01-04T08:24:59.949Z,62.00
2018-01-04T08:27:27.454Z,62.10
2018-01-04T08:29:54.949Z,62.00
2018-01-04T08:32:22.445Z,62.10
2018-01-04T08:34:50.703Z,62.10
2018-01-04T08:37:18.201Z,62.00
2018-01-04T08:39:46.455Z,62.10
2018-01-04T08:42:13.965Z,62.10
2018-01-04T08:44:41.478Z,62.50
2018-01-04T08:47:08.987Z,62.00
2018-01-04T08:49:36.474Z,62.10
2018-01-04T08:52:03.982Z,62.20
2018-01-04T08:54:31.478Z,62.20
2018-01-04T08:56:59.757Z,62.40
2018-01-04T08:59:27.241Z,62.30
2018-01-04T09:01:54.749Z,62.50
2018-01-04T09:04:22.233Z,62.50
2018-01-04T09:06:49.730Z,62.50
2018-01-04T09:09:17.989Z,62.60
2018-01-04T09:11:45.496Z,62.50
2018-01-04T09:14:13.003Z,62.50
2018-01-04T09:16:40.512Z,62.30
2018-01-04T09:19:08.003Z,62.20
2018-01-04T09:21:35.513Z,62.00
2018-01-04T09:24:03.005Z,61.80
2018-01-04T09:26:30.518Z,61.70
2018-01-04T09:28:58.779Z,61.70
2018-01-04T09:31:26.282Z,61.70
2018-01-04T09:33:53.777Z,61.40
2018-01-04T09:36:21.261Z,61.40
2018-01-04T09:38:49.906Z,61.30
2018-01-04T09:41:17.402Z,61.20
2018-01-04T09:43:44.909Z,61.00
2018-01-04T09:46:12.398Z,60.50
2018-01-04T09:48:39.904Z,61.00
2018-01-04T09:51:07.406Z,61.00
2018-01-04T09:53:34.912Z,60.90
2018-01-04T09:56:02.418Z,61.00
2018-01-04T09:58:29.925Z,61.30
2018-01-04T10:00:58.182Z,61.40
2018-01-04T10:03:25.686Z,61.40
2018-01-04T10:05:53.179Z,61.40
2018-01-04T10:08:20.678Z,61.70
2018-01-04T10:10:48.935Z,61.80
2018-01-04T10:13:16.438Z,61.70
2018-01-04T10:15:43.933Z,62.00
2018-01-04T10:18:11.444Z,62.20
2018-01-04T10:20:38.929Z,62.30
2018-01-04T10:23:06.438Z,62.50
2018-01-04T10:25:34.693Z,62.50
2018-01-04T10:28:02.221Z,62.40
2018-01-04T10:30:30.205Z,62.50
2018-01-04T10:33:00.077Z,62.50
2018-01-04T10:35:27.641Z,62.40
2018-01-04T10:37:55.162Z,62.10
2018-01-04T10:40:22.657Z,62.70
2018-01-04T10:42:50.905Z,62.90
2018-01-04T10:45:18.412Z,62.90
2018-01-04T10:47:45.906Z,63.00
2018-01-04T10:50:13.414Z,62.90
2018-01-04T10:52:40.901Z,62.90
2018-01-04T10:55:08.414Z,63.10
2018-01-04T10:57:36.674Z,63.30
2018-01-04T11:00:04.174Z,63.30
2018-01-04T11:02:31.678Z,63.40
2018-01-04T11:04:59.186Z,63.30
2018-01-04T11:07:27.522Z,63.40
2018-01-04T11:09:55.032Z,63.50
2018-01-04T11:12:22.521Z,63.50
2018-01-04T11:14:50.030Z,63.60
2018-01-04T11:17:18.285Z,63.80
2018-01-04T11:19:45.782Z,63.70
2018-01-04T11:22:13.280Z,63.80
2018-01-04T11:24:40.793Z,63.80
2018-01-04T11:27:08.282Z,64.50
2018-01-04T11:29:35.781Z,63.90
2018-01-04T11:32:03.267Z,63.90
2018-01-04T11:34:30.758Z,64.00
2018-01-04T11:36:58.258Z,64.00
2018-01-04T11:39:26.517Z,64.30
2018-01-04T11:41:54.032Z,64.20
2018-01-04T11:44:21.522Z,64.20
2018-01-04T11:46:49.026Z,64.20
2018-01-04T11:49:17.277Z,64.40
2018-01-04T11:51:44.778Z,64.20
2018-01-04T11:54:12.274Z,64.60
2018-01-04T11:56:39.786Z,64.60
2018-01-04T11:59:07.281Z,64.50
2018-01-04T12:01:34.781Z,64.50
2018-01-04T12:04:03.038Z,65.10
2018-01-04T12:06:30.548Z,64.30
2018-01-04T12:08:58.041Z,64.50
2018-01-04T12:11:25.545Z,64.60
2018-01-04T12:13:53.801Z,64.80
2018-01-04T12:16:21.305Z,64.70
2018-01-04T12:18:48.798Z,64.70
2018-01-04T12:21:16.306Z,64.60
2018-01-04T12:23:43.793Z,64.50
2018-01-04T12:26:11.310Z,64.60
2018-01-04T12:28:39.561Z,64.60
2018-01-04T12:31:07.071Z,64.50
2018-01-04T12:33:34.566Z,64.40
2018-01-04T12:36:02.106Z,64.40
2018-01-04T12:38:29.593Z,64.60
2018-01-04T12:40:57.132Z,64.90
2018-01-04T12:43:24.621Z,64.90
2018-01-04T12:45:52.126Z,64.90
2018-01-04T12:48:19.618Z,64.90
2018-01-04T12:50:47.105Z,64.80
2018-01-04T12:53:14.613Z,64.90
2018-01-04T12:55:42.106Z,64.80
2018-01-04T12:58:09.606Z,64.60
2018-01-04T13:00:37.088Z,64.70
2018-01-04T13:03:04.593Z,64.70
2018-01-04T13:05:32.077Z,64.70
2018-01-04T13:08:00.343Z,64.40
2018-01-04T13:10:28.598Z,64.30
2018-01-04T13:12:56.889Z,64.20
2018-01-04T13:15:25.146Z,64.20
2018-01-04T13:17:52.648Z,64.10
2018-01-04T13:20:20.133Z,64.10
2018-01-04T13:22:47.634Z,64.10
2018-01-04T13:25:15.122Z,64.10
2018-01-04T13:27:42.629Z,64.20
2018-01-04T13:30:10.118Z,64.30
2018-01-04T13:32:38.395Z,64.30
2018-01-04T13:35:06.654Z,64.30
2018-01-04T13:37:34.170Z,64.10
2018-01-04T13:40:01.658Z,64.40
2018-01-04T13:42:29.179Z,64.50
2018-01-04T13:44:56.682Z,64.50
2018-01-04T13:47:24.196Z,64.50
2018-01-04T13:49:51.677Z,64.40
2018-01-04T13:52:19.181Z,64.40
2018-01-04T13:54:47.438Z,64.30
2018-01-04T13:57:14.941Z,64.20
2018-01-04T13:59:42.429Z,64.30
2018-01-04T14:02:09.957Z,64.50
2018-01-04T14:04:37.458Z,64.40
2018-01-04T14:07:04.957Z,64.80
2018-01-04T14:09:33.205Z,64.80
2018-01-04T14:12:02.322Z,64.70
2018-01-04T14:14:30.582Z,64.80
2018-01-04T14:16:58.090Z,64.80
2018-01-04T14:19:25.584Z,64.80
2018-01-04T14:21:53.097Z,64.80
2018-01-04T14:24:20.589Z,64.80
2018-01-04T14:26:48.094Z,64.80
2018-01-04T14:29:16.366Z,65.00
2018-01-04T14:31:43.857Z,64.90
2018-01-04T14:34:11.367Z,64.30
2018-01-04T14:36:38.857Z,65.50
2018-01-04T14:39:07.130Z,64.70
2018-01-04T14:41:35.386Z,64.50
2018-01-04T14:44:02.890Z,64.60
2018-01-04T14:46:30.373Z,64.40
2018-01-04T14:48:57.877Z,64.40
2018-01-04T14:51:26.134Z,64.50
2018-01-04T14:53:53.642Z,64.50
2018-01-04T14:56:21.132Z,64.50
2018-01-04T14:58:48.637Z,64.60
2018-01-04T15:01:16.890Z,64.80
2018-01-04T15:03:44.393Z,64.70
2018-01-04T15:06:11.882Z,64.80
2018-01-04T15:08:39.386Z,64.80
2018-01-04T15:11:07.642Z,64.80
2018-01-04T15:13:35.150Z,64.70
2018-01-04T15:16:02.642Z,64.70
2018-01-04T15:18:30.149Z,64.70
2018-01-04T15:20:58.401Z,64.80
2018-01-04T15:23:25.914Z,64.80
2018-01-04T15:25:53.421Z,64.90
2018-01-04T15:28:20.918Z,65.00
2018-01-04T15:30:48.419Z,65.00
2018-01-04T15:33:15.933Z,65.10
2018-01-04T15:35:43.437Z,65.10
2018-01-04T15:38:10.945Z,65.30
2018-01-04T15:40:38.439Z,65.40
2018-01-04T15:43:06.724Z,66.10
2018-01-04T15:45:34.223Z,65.60
2018-01-04T15:48:02.487Z,66.10
2018-01-04T15:50:30.014Z,66.10
2018-01-04T15:52:57.514Z,66.90
2018-01-04T15:55:25.793Z,69.40
2018-01-04T15:57:54.054Z,72.30
2018-01-04T16:00:21.565Z,72.20
2018-01-04T16:02:49.058Z,72.70
2018-01-04T16:05:16.557Z,73.90
2018-01-04T16:07:44.816Z,74.70
2018-01-04T16:10:13.090Z,74.60
2018-01-04T16:12:41.344Z,74.80
2018-01-04T16:15:08.849Z,74.80
2018-01-04T16:17:36.344Z,73.60
2018-01-04T16:20:03.857Z,73.30
2018-01-04T16:22:32.167Z,73.50
2018-01-04T16:24:59.678Z,73.40
2018-01-04T16:27:27.938Z,74.40
2018-01-04T16:29:56.957Z,73.90
2018-01-04T16:32:25.214Z,73.90
2018-01-04T16:34:52.725Z,73.80
2018-01-04T16:37:20.222Z,73.20
2018-01-04T16:39:47.733Z,73.10
2018-01-04T16:42:15.230Z,73.00
2018-01-04T16:44:42.742Z,73.20
2018-01-04T16:47:10.233Z,73.50
2018-01-04T16:49:37.726Z,73.30
2018-01-04T16:52:05.233Z,73.20
2018-01-04T16:54:32.727Z,73.30
2018-01-04T16:57:00.225Z,72.80
2018-01-04T16:59:28.485Z,72.50
2018-01-04T17:01:55.994Z,72.50
2018-01-04T17:04:23.490Z,72.60
2018-01-04T17:06:50.998Z,72.30
2018-01-04T17:09:18.497Z,72.10
2018-01-04T17:11:46.053Z,72.30
2018-01-04T17:14:13.586Z,72.10
2018-01-04T17:16:41.098Z,72.30
2018-01-04T17:19:08.589Z,71.80
2018-01-04T17:21:36.106Z,71.30
2018-01-04T17:24:03.596Z,71.40
2018-01-04T17:26:31.162Z,71.50
2018-01-04T17:28:58.634Z,71.00
2018-01-04T17:31:26.341Z,71.40
2018-01-04T17:33:53.837Z,71.50
2018-01-04T17:36:22.106Z,71.30
2018-01-04T17:38:50.361Z,71.30
2018-01-04T17:41:17.912Z,71.30
2018-01-04T17:43:45.402Z,71.50
2018-01-04T17:46:13.719Z,71.40
2018-01-04T17:48:41.217Z,71.30
2018-01-04T17:51:08.764Z,71.10
2018-01-04T17:53:36.249Z,71.00
2018-01-04T17:56:04.554Z,72.00
2018-01-04T17:58:32.808Z,71.30
2018-01-04T18:01:00.314Z,71.20
2018-01-04T18:03:27.817Z,71.30
2018-01-04T18:05:56.074Z,72.00
2018-01-04T18:08:23.581Z,71.30
2018-01-04T18:10:51.081Z,71.40
2018-01-04T18:13:18.594Z,71.50
2018-01-04T18:15:46.085Z,71.20
2018-01-04T18:18:13.593Z,71.00
2018-01-04T18:20:41.855Z,70.90
2018-01-04T18:23:09.367Z,70.90
2018-01-04T18:25:36.866Z,70.80
2018-01-04T18:28:04.382Z,70.70
2018-01-04T18:30:31.938Z,70.80
2018-01-04T18:32:59.488Z,70.60
2018-01-04T18:35:27.042Z,70.60
2018-01-04T18:37:54.598Z,70.60
2018-01-04T18:40:22.098Z,70.50
2018-01-04T18:42:50.411Z,70.50
2018-01-04T18:45:17.959Z,70.50
2018-01-04T18:47:45.521Z,71.20
2018-01-04T18:50:13.833Z,70.60
2018-01-04T18:52:41.348Z,70.50
2018-01-04T18:55:08.896Z,70.30
2018-01-04T18:57:36.456Z,70.70
2018-01-04T19:00:04.010Z,70.80
2018-01-04T19:02:31.525Z,71.00
2018-01-04T19:04:59.824Z,70.70
2018-01-04T19:07:28.100Z,70.70
2018-01-04T19:09:55.642Z,70.60
2018-01-04T19:12:23.199Z,70.30
2018-01-04T19:14:51.453Z,70.30
2018-01-04T19:17:18.965Z,70.30
2018-01-04T19:19:46.525Z,70.30
2018-01-04T19:22:14.117Z,70.00
2018-01-04T19:24:41.665Z,70.10
2018-01-04T19:27:09.224Z,70.20
2018-01-04T19:29:36.735Z,70.30
2018-01-04T19:32:04.275Z,70.00
2018-01-04T19:34:31.832Z,70.10
2018-01-04T19:36:59.377Z,70.10
2018-01-04T19:39:26.945Z,70.10
2018-01-04T19:41:54.485Z,69.90
2018-01-04T19:44:22.042Z,69.90
2018-01-04T19:46:49.588Z,70.00
2018-01-04T19:49:17.152Z,70.00
2018-01-04T19:51:44.701Z,69.80
2018-01-04T19:54:12.261Z,70.00
2018-01-04T19:56:39.809Z,69.90
2018-01-04T19:59:07.377Z,69.80
2018-01-04T20:01:34.917Z,69.90
2018-01-04T20:04:02.487Z,69.80
2018-01-04T20:06:30.032Z,69.80
2018-01-04T20:08:58.365Z,69.70
2018-01-04T20:11:25.912Z,69.60
2018-01-04T20:13:53.478Z,69.60
2018-01-04T20:16:21.022Z,69.60
2018-01-04T20:18:48.597Z,69.40
2018-01-04T20:21:16.137Z,69.40
2018-01-04T20:23:43.706Z,69.40
2018-01-04T20:26:11.244Z,69.60
2018-01-04T20:28:38.811Z,69.70
2018-01-04T20:31:06.361Z,69.60
2018-01-04T20:33:33.940Z,69.60
2018-01-04T20:36:01.480Z,69.80
2018-01-04T20:38:29.049Z,69.60
2018-01-04T20:40:56.624Z,69.90
2018-01-04T20:43:24.184Z,70.00
2018-01-04T20:45:51.729Z,70.00
2018-01-04T20:48:19.288Z,70.00
2018-01-04T20:50:46.834Z,70.10
2018-01-04T20:53:15.173Z,70.00
2018-01-04T20:55:42.721Z,70.00
2018-01-04T20:58:10.281Z,70.00
2018-01-04T21:00:37.817Z,70.00
2018-01-04T21:03:05.378Z,70.00
2018-01-04T21:05:32.925Z,70.10
2018-01-04T21:08:00.480Z,70.00
2018-01-04T21:10:28.026Z,70.00
2018-01-04T21:12:56.365Z,69.50
2018-01-04T21:15:23.910Z,69.40
2018-01-04T21:17:51.449Z,69.50
2018-01-04T21:20:19.014Z,69.70
2018-01-04T21:22:46.564Z,69.60
2018-01-04T21:25:14.120Z,69.60
2018-01-04T21:27:41.661Z,69.50
2018-01-04T21:30:09.235Z,69.60
2018-01-04T21:32:36.786Z,69.20
2018-01-04T21:35:04.345Z,69.20
2018-01-04T21:37:32.673Z,69.20
2018-01-04T21:40:00.224Z,69.10
2018-01-04T21:42:27.770Z,69.00
2018-01-04T21:44:55.334Z,68.90
2018-01-04T21:47:22.881Z,69.10
2018-01-04T21:49:50.442Z,68.80
2018-01-04T21:52:17.984Z,68.50
2018-01-04T21:54:45.544Z,68.20
2018-01-04T21:57:13.094Z,68.10
2018-01-04T21:59:41.420Z,67.80
2018-01-04T22:02:08.961Z,67.90
2018-01-04T22:04:36.521Z,67.20
2018-01-04T22:07:04.065Z,67.20
2018-01-04T22:09:31.624Z,66.90
2018-01-04T22:11:59.165Z,66.90
2018-01-04T22:14:27.496Z,66.30
2018-01-04T22:16:55.049Z,66.20
2018-01-04T22:19:22.641Z,66.30
2018-01-04T22:21:50.181Z,66.20
2018-01-04T22:24:17.745Z,65.70
2018-01-04T22:26:46.053Z,65.20
2018-01-04T22:29:13.619Z,65.20
2018-01-04T22:31:41.939Z,64.60
2018-01-04T22:34:09.497Z,64.60
2018-01-04T22:36:37.045Z,65.00
2018-01-04T22:39:04.589Z,65.00
2018-01-04T22:41:32.179Z,64.70
2018-01-04T22:43:59.727Z,64.60
2018-01-04T22:46:27.293Z,64.00
2018-01-04T22:48:54.828Z,64.10
2018-01-04T22:51:23.157Z,64.30
2018-01-04T22:53:50.701Z,64.20
2018-01-04T22:56:18.251Z,64.00
2018-01-04T22:58:45.796Z,63.90
2018-01-04T23:01:13.352Z,63.70
2018-01-04T23:03:40.905Z,63.90
2018-01-04T23:06:08.469Z,63.80
2018-01-04T23:08:36.763Z,63.70
2018-01-04T23:11:04.324Z,63.70
2018-01-04T23:13:31.865Z,63.90
2018-01-04T23:16:00.195Z,64.00
2018-01-04T23:18:27.741Z,63.90
2018-01-04T23:20:55.301Z,63.70
2018-01-04T23:23:22.853Z,63.60
2018-01-04T23:25:50.412Z,63.80
2018-01-04T23:28:17.958Z,65.20
2018-01-04T23:30:45.514Z,66.30
2018-01-04T23:33:13.047Z,66.40
2018-01-04T23:35:41.377Z,65.20
2018-01-04T23:38:08.865Z,65.20
2018-01-04T23:40:36.416Z,64.90
2018-01-04T23:43:03.960Z,64.80
2018-01-04T23:45:31.526Z,64.90
2018-01-04T23:47:59.079Z,64.90
2018-01-04T23:50:26.591Z,64.90
2018-01-04T23:52:54.887Z,65.10
2018-01-04T23:55:22.431Z,64.90
2018-01-04T23:57:50.726Z,65.30
